Time;durP1;ratioP1;P1;durP2;ratioP2;P2;SDS_P1;SDS_P2;PMS_P1;PMS_P2;Temp;Humidity;BMP_temperature;BMP_pressure;BME280_temperature;BME280_humidity;BME280_pressure;Samples;Min_cycle;Max_cycle;Signal;HPM_P1;HPM_P2
2022/07/19 00:00:24;;;;;;;5.03;4.30;;;;;;;23.47;43.16;94056.47;4980360;28;20049;-95
2022/07/19 00:02:50;;;;;;;4.88;4.22;;;;;;;23.45;43.17;94050.72;4981019;28;20037;-92
2022/07/19 00:05:16;;;;;;;3.83;3.45;;;;;;;23.46;42.87;94050.19;4996758;28;20463;-95
2022/07/19 00:07:41;;;;;;;4.00;3.42;;;;;;;23.44;43.22;94049.22;4983001;28;20112;-94
2022/07/19 00:10:08;;;;;;;5.28;3.97;;;;;;;23.46;43.16;94049.44;4980248;28;20121;-94
2022/07/19 00:12:34;;;;;;;4.68;3.80;;;;;;;23.45;43.10;94047.97;4997074;28;20061;-92
2022/07/19 00:14:59;;;;;;;4.28;3.72;;;;;;;23.46;43.16;94046.69;4980649;28;20152;-94
2022/07/19 00:17:25;;;;;;;4.22;3.70;;;;;;;23.43;43.22;94045.72;4979774;28;20382;-93
2022/07/19 00:19:50;;;;;;;4.50;3.95;;;;;;;23.44;43.08;94044.47;4977096;28;20405;-94
2022/07/19 00:22:16;;;;;;;4.18;3.60;;;;;;;23.43;43.07;94042.22;5011084;28;20500;-93
2022/07/19 00:24:41;;;;;;;4.10;3.30;;;;;;;23.42;43.23;94035.22;4980710;28;20564;-94
2022/07/19 00:27:07;;;;;;;5.13;4.00;;;;;;;23.43;43.09;94036.72;4979473;28;20042;-92
2022/07/19 00:29:32;;;;;;;4.55;4.10;;;;;;;23.42;42.99;94038.72;4996088;28;20130;-95
2022/07/19 00:31:58;;;;;;;4.35;3.95;;;;;;;23.43;43.24;94042.22;4980337;28;20042;-93
2022/07/19 00:34:24;;;;;;;4.93;3.72;;;;;;;23.43;43.24;94039.47;4979076;28;20044;-94
2022/07/19 00:36:50;;;;;;;4.60;3.65;;;;;;;23.42;43.00;94032.47;4995956;28;20041;-94
2022/07/19 00:39:16;;;;;;;4.20;3.70;;;;;;;23.43;43.52;94031.19;4987362;28;20049;-92
2022/07/19 00:41:42;;;;;;;4.10;3.17;;;;;;;23.40;43.44;94041.28;4999512;28;20029;-94
2022/07/19 00:44:08;;;;;;;4.30;3.90;;;;;;;23.42;43.16;94035.97;4998767;28;20118;-94
2022/07/19 00:46:33;;;;;;;4.78;3.80;;;;;;;23.42;43.01;94030.44;5009895;28;20037;-93
2022/07/19 00:48:59;;;;;;;4.28;3.40;;;;;;;23.42;43.18;94035.22;4979574;28;20033;-94
2022/07/19 00:51:24;;;;;;;3.42;3.10;;;;;;;23.41;43.12;94028.22;4978990;28;20115;-94
2022/07/19 00:53:51;;;;;;;4.38;3.40;;;;;;;23.41;43.28;94045.50;4955682;28;20050;-96
2022/07/19 00:56:16;;;;;;;3.70;3.25;;;;;;;23.39;43.12;94039.78;4939542;28;20046;-94
2022/07/19 00:58:42;;;;;;;4.05;3.30;;;;;;;23.40;43.19;94046.78;4939694;28;20117;-94
2022/07/19 01:01:07;;;;;;;4.20;3.10;;;;;;;23.42;43.23;94043.50;4938484;28;20113;-93
2022/07/19 01:03:37;;;;;;;4.22;3.50;;;;;;;23.38;43.12;94035.56;4939522;28;20052;-94
2022/07/19 01:06:03;;;;;;;5.43;3.75;;;;;;;23.40;43.16;94035.00;4939849;28;20038;-93
2022/07/19 01:08:29;;;;;;;3.10;2.70;;;;;;;23.37;42.99;94031.31;4939576;28;20477;-94
2022/07/19 01:10:54;;;;;;;3.92;3.00;;;;;;;23.36;43.15;94035.34;4941671;28;20050;-93
2022/07/19 01:13:20;;;;;;;2.85;2.55;;;;;;;23.36;43.13;94035.34;4940317;28;20093;-93
2022/07/19 01:15:45;;;;;;;3.50;3.13;;;;;;;23.38;43.39;94034.81;4955761;28;20038;-95
2022/07/19 01:18:11;;;;;;;3.97;2.75;;;;;;;23.39;43.12;94036.28;4987575;28;20077;-93
2022/07/19 01:20:36;;;;;;;3.92;3.25;;;;;;;23.37;43.27;94042.34;4987594;28;20089;-94
2022/07/19 01:23:02;;;;;;;4.00;3.60;;;;;;;23.37;43.16;94031.31;4938899;28;20039;-94
2022/07/19 01:25:29;;;;;;;4.38;3.30;;;;;;;23.35;43.08;94036.59;4969446;28;20369;-92
2022/07/19 01:27:55;;;;;;;3.50;3.13;;;;;;;23.37;43.24;94034.06;4979373;28;20037;-95
2022/07/19 01:30:21;;;;;;;3.15;2.85;;;;;;;23.35;43.08;94028.34;4978206;28;20037;-91
2022/07/19 01:32:47;;;;;;;3.63;2.78;;;;;;;23.35;43.23;94031.09;4978897;28;20063;-91
2022/07/19 01:35:13;;;;;;;4.72;3.28;;;;;;;23.36;43.34;94034.59;4978735;28;20026;-93
2022/07/19 01:37:38;;;;;;;4.47;2.95;;;;;;;23.35;42.89;94020.06;4979290;28;20111;-93
2022/07/19 01:40:04;;;;;;;2.92;2.30;;;;;;;23.35;43.32;94022.06;4978489;28;20052;-94
2022/07/19 01:42:31;;;;;;;3.38;2.92;;;;;;;23.33;43.34;94022.59;4979960;28;20101;-94
2022/07/19 01:44:56;;;;;;;4.07;2.95;;;;;;;23.35;43.29;94019.31;5011668;28;20373;-92
2022/07/19 01:47:22;;;;;;;3.53;2.90;;;;;;;23.35;43.08;94014.53;4998227;28;20041;-95
2022/07/19 01:49:47;;;;;;;2.95;2.50;;;;;;;23.34;43.04;94015.06;4998327;28;20048;-91
2022/07/19 01:52:13;;;;;;;3.38;2.78;;;;;;;23.34;43.07;94013.06;4995854;28;20515;-94
2022/07/19 01:54:38;;;;;;;3.47;3.00;;;;;;;23.34;43.16;94009.56;4979045;28;20033;-93
2022/07/19 01:57:04;;;;;;;3.85;3.00;;;;;;;23.32;43.14;94012.84;4978410;28;20065;-92
2022/07/19 01:59:29;;;;;;;4.53;3.20;;;;;;;23.33;42.80;94013.56;4978553;28;20030;-93
2022/07/19 02:01:55;;;;;;;2.90;2.60;;;;;;;23.32;43.27;94018.34;4994726;28;20099;-94
2022/07/19 02:04:20;;;;;;;4.72;2.97;;;;;;;23.34;43.27;94006.78;4978296;28;20038;-92
2022/07/19 02:06:46;;;;;;;2.70;2.35;;;;;;;23.32;43.00;94012.09;4979257;28;20464;-92
2022/07/19 02:09:11;;;;;;;3.28;2.97;;;;;;;23.33;43.23;94013.56;4978084;28;20076;-93
2022/07/19 02:11:37;;;;;;;3.25;2.58;;;;;;;23.32;43.46;94012.84;4978338;28;20042;-95
2022/07/19 02:14:04;;;;;;;3.45;2.58;;;;;;;23.32;43.40;94009.34;4994880;28;20037;-93
2022/07/19 02:16:29;;;;;;;3.05;2.70;;;;;;;23.31;43.23;94018.88;4980771;28;20069;-92
2022/07/19 02:18:55;;;;;;;2.90;2.60;;;;;;;23.31;43.25;94014.09;4978365;28;20056;-92
2022/07/19 02:21:20;;;;;;;2.92;2.65;;;;;;;23.30;43.01;94015.38;4977936;28;20041;-93
2022/07/19 02:23:46;;;;;;;3.42;2.50;;;;;;;23.32;43.35;94009.34;4978759;28;20045;-96
2022/07/19 02:26:11;;;;;;;4.75;2.72;;;;;;;23.31;43.41;94008.59;4978303;28;20080;-92
2022/07/19 02:28:37;;;;;;;3.75;2.70;;;;;;;23.31;43.38;94021.63;4978789;28;20120;-94
2022/07/19 02:31:02;;;;;;;3.47;2.70;;;;;;;23.29;43.16;94016.66;4978293;28;20029;-95
2022/07/19 02:33:28;;;;;;;2.90;2.50;;;;;;;23.28;43.30;94014.41;4982171;28;20052;-92
2022/07/19 02:35:53;;;;;;;3.67;2.83;;;;;;;23.29;43.59;94010.38;4998539;28;20064;-93
2022/07/19 02:38:19;;;;;;;3.72;2.53;;;;;;;23.26;43.29;94014.94;4997617;28;20045;-94
2022/07/19 02:40:44;;;;;;;3.53;2.60;;;;;;;23.31;43.37;94010.59;4998008;28;20032;-93
2022/07/19 02:43:10;;;;;;;3.20;2.45;;;;;;;23.29;43.35;94013.88;4994793;28;20098;-92
2022/07/19 02:45:35;;;;;;;3.97;2.83;;;;;;;23.29;43.24;94019.41;4994682;28;20037;-93
2022/07/19 02:48:02;;;;;;;2.72;2.45;;;;;;;23.29;43.05;94007.63;4985430;28;20048;-92
2022/07/19 02:50:28;;;;;;;3.17;2.20;;;;;;;23.28;43.36;94006.13;4997931;28;20037;-93
2022/07/19 02:52:53;;;;;;;2.50;2.13;;;;;;;23.30;43.22;94014.63;4997603;28;20033;-94
2022/07/19 02:55:19;;;;;;;3.05;2.50;;;;;;;23.28;43.35;94011.66;4997647;28;20036;-94
2022/07/19 02:57:44;;;;;;;2.53;2.08;;;;;;;23.28;43.14;94012.41;4997817;28;20385;-93
2022/07/19 03:00:10;;;;;;;2.83;2.28;;;;;;;23.28;43.21;94011.66;4997278;28;20578;-94
2022/07/19 03:02:35;;;;;;;2.75;2.25;;;;;;;23.28;43.18;94017.19;5001293;28;20033;-95
2022/07/19 03:05:01;;;;;;;3.72;2.10;;;;;;;23.27;43.12;94008.16;5017571;28;20040;-94
2022/07/19 03:07:26;;;;;;;2.67;2.28;;;;;;;23.25;43.45;94008.69;5001189;28;20033;-92
2022/07/19 03:09:52;;;;;;;3.13;2.30;;;;;;;23.27;43.37;94001.88;5001271;28;20036;-93
2022/07/19 03:12:17;;;;;;;2.97;2.35;;;;;;;23.25;43.30;94008.69;4999953;28;20114;-94
2022/07/19 03:14:43;;;;;;;3.72;2.17;;;;;;;23.27;43.18;94010.91;4994085;28;20037;-93
2022/07/19 03:17:08;;;;;;;2.78;2.47;;;;;;;23.25;43.42;94005.19;4980754;28;20080;-95
2022/07/19 03:19:33;;;;;;;2.70;2.15;;;;;;;23.26;43.13;94014.94;4996996;28;20510;-93
2022/07/19 03:21:59;;;;;;;2.00;1.80;;;;;;;23.25;43.09;94008.69;4981637;28;20033;-92
2022/07/19 03:24:24;;;;;;;2.38;1.90;;;;;;;23.25;43.07;94011.44;4980600;28;20412;-93
2022/07/19 03:26:50;;;;;;;2.00;1.80;;;;;;;23.25;43.24;94008.69;4957953;28;20407;-94
2022/07/19 03:29:15;;;;;;;2.25;1.73;;;;;;;23.23;43.70;94008.47;4940934;28;20050;-94
2022/07/19 03:31:40;;;;;;;2.00;1.80;;;;;;;23.24;43.14;94009.94;4941235;28;20043;-93
2022/07/19 03:34:06;;;;;;;2.88;1.90;;;;;;;23.23;43.23;94013.97;4941403;28;20035;-92
2022/07/19 03:36:32;;;;;;;2.13;1.65;;;;;;;23.21;43.22;94007.50;4940980;28;20049;-95
2022/07/19 03:39:00;;;;;;;2.47;2.17;;;;;;;23.22;43.34;94015.25;4941185;28;20559;-92
2022/07/19 03:41:25;;;;;;;3.67;1.98;;;;;;;23.24;43.08;94017.47;4942101;28;20037;-93
2022/07/19 03:43:51;;;;;;;2.13;1.92;;;;;;;23.22;43.11;94017.25;4941482;28;20050;-92
2022/07/19 03:46:20;;;;;;;2.17;1.98;;;;;;;23.23;43.37;94019.50;4996538;28;20034;-94
2022/07/19 03:48:46;;;;;;;4.63;2.05;;;;;;;23.25;43.05;94022.47;4978957;28;20046;-92
2022/07/19 03:51:12;;;;;;;8.00;6.95;;;;;;;23.24;43.06;94020.97;4975708;28;20177;-93
2022/07/19 03:53:37;;;;;;;5.78;5.18;;;;;;;23.27;43.19;94029.47;4958402;28;20053;-92
2022/07/19 03:56:03;;;;;;;6.88;5.97;;;;;;;23.27;43.21;94024.72;4978994;28;20480;-94
2022/07/19 03:58:28;;;;;;;6.40;5.55;;;;;;;23.30;43.11;94020.16;4986549;28;20050;-93
2022/07/19 04:00:54;;;;;;;7.38;5.60;;;;;;;23.33;43.09;94027.38;4981681;28;20050;-93
2022/07/19 04:03:19;;;;;;;5.28;4.70;;;;;;;23.39;42.96;94020.47;5017759;28;20037;-92
2022/07/19 04:05:44;;;;;;;7.90;4.68;;;;;;;23.33;42.62;94025.34;4991154;28;20089;-92
2022/07/19 04:08:10;;;;;;;15.55;6.18;;;;;;;23.34;41.45;94026.84;4980842;28;20045;-94
2022/07/19 04:10:39;;;;;;;15.43;5.43;;;;;;;23.13;40.97;94023.94;4983231;28;20037;-95
2022/07/19 04:13:04;;;;;;;9.27;2.95;;;;;;;22.94;40.85;94036.31;4980444;28;20037;-95
2022/07/19 04:15:30;;;;;;;8.98;2.97;;;;;;;22.84;40.49;94033.94;4983590;28;20071;-94
2022/07/19 04:17:56;;;;;;;5.20;2.55;;;;;;;22.25;41.98;94029.50;4986959;28;20083;-93
2022/07/19 04:20:21;;;;;;;6.00;2.67;;;;;;;22.06;42.59;94029.50;5011690;28;20339;-91
2022/07/19 04:22:47;;;;;;;6.50;2.53;;;;;;;21.80;43.20;94030.03;4979942;28;20033;-95
2022/07/19 04:25:12;;;;;;;109.43;85.28;;;;;;;21.63;43.92;94037.75;4983541;28;20038;-92
2022/07/19 04:27:38;;;;;;;43.47;31.92;;;;;;;21.60;43.62;94036.03;4991960;28;20118;-88
2022/07/19 04:30:05;;;;;;;6.70;4.00;;;;;;;21.74;43.83;94028.59;4993502;28;20034;-93
2022/07/19 04:32:31;;;;;;;8.85;2.47;;;;;;;21.65;43.77;94037.22;4990721;28;20045;-94
2022/07/19 04:35:03;;;;;;;12.25;2.47;;;;;;;21.45;44.79;94033.66;5016617;28;20038;-95
2022/07/19 04:37:33;;;;;;;4.75;2.05;;;;;;;21.48;45.94;94029.88;4972146;28;20301;-91
2022/07/19 04:39:59;;;;;;;10.47;2.80;;;;;;;21.63;45.35;94037.00;5003148;28;20041;-87
2022/07/19 04:42:25;;;;;;;130.90;110.90;;;;;;;21.61;45.91;94031.28;5029195;28;20033;-92
2022/07/19 04:44:58;;;;;;;84.30;62.78;;;;;;;21.75;46.05;94039.09;5130181;22;20037;-87
2022/07/19 04:47:24;;;;;;;32.78;15.07;;;;;;;21.82;45.34;94035.78;5029638;23;20647;-92
2022/07/19 04:49:49;;;;;;;12.07;5.07;;;;;;;21.78;45.56;94037.31;5014766;28;20034;-91
2022/07/19 04:52:15;;;;;;;27.70;12.43;;;;;;;21.69;45.92;94037.66;4997309;28;20052;-87
2022/07/19 04:54:40;;;;;;;24.38;11.75;;;;;;;21.80;45.49;94032.78;5011950;28;20037;-91
2022/07/19 04:57:06;;;;;;;22.52;9.13;;;;;;;21.92;45.48;94025.13;5019386;28;20049;-88
2022/07/19 04:59:33;;;;;;;39.45;12.95;;;;;;;21.95;45.42;94035.13;4975918;28;20041;-90
2022/07/19 05:01:58;;;;;;;24.20;9.43;;;;;;;21.96;45.55;94022.84;4976082;28;20061;-92
2022/07/19 05:04:24;;;;;;;49.05;18.35;;;;;;;21.92;45.95;94024.38;4979455;28;20519;-92
2022/07/19 05:06:51;;;;;;;19.52;7.53;;;;;;;21.96;46.47;94027.59;4998775;28;20041;-92
2022/07/19 05:09:26;;;;;;;17.58;8.55;;;;;;;21.95;47.31;94015.84;5001437;28;20044;-94
2022/07/19 05:11:52;;;;;;;44.10;10.43;;;;;;;21.81;47.80;94026.03;4999166;28;20549;-91
2022/07/19 05:14:18;;;;;;;9.18;4.82;;;;;;;21.83;48.54;94018.00;5002095;28;20041;-94
2022/07/19 05:16:44;;;;;;;16.83;5.82;;;;;;;21.85;48.88;94025.75;4999223;28;20116;-91
2022/07/19 05:19:13;;;;;;;18.10;5.03;;;;;;;21.90;48.83;94028.41;4986903;28;20137;-90
2022/07/19 05:21:38;;;;;;;10.10;3.65;;;;;;;21.83;49.13;94022.75;4994680;28;20143;-90
2022/07/19 05:24:04;;;;;;;21.70;5.88;;;;;;;21.82;49.07;94021.28;5010350;28;20068;-90
2022/07/19 05:26:30;;;;;;;26.35;12.23;;;;;;;21.80;48.63;94027.28;4998036;28;20033;-92
2022/07/19 05:28:56;;;;;;;11.32;3.53;;;;;;;22.01;47.72;94024.81;4996102;28;20053;-90
2022/07/19 05:31:21;;;;;;;15.38;4.82;;;;;;;22.07;47.62;94022.00;5012729;28;20037;-90
2022/07/19 05:33:47;;;;;;;13.68;4.70;;;;;;;22.21;47.28;94023.56;5013942;28;20087;-88
2022/07/19 05:36:12;;;;;;;12.70;3.92;;;;;;;22.34;46.88;94022.88;4995881;28;20052;-90
2022/07/19 05:38:38;;;;;;;5.78;3.17;;;;;;;22.42;46.85;94021.75;4997006;28;20091;-88
2022/07/19 05:41:05;;;;;;;7.72;3.53;;;;;;;22.44;46.82;94024.00;5013404;28;20033;-88
2022/07/19 05:43:30;;;;;;;4.65;3.45;;;;;;;22.52;47.06;94019.34;4997890;28;20041;-89
2022/07/19 05:45:56;;;;;;;6.75;3.63;;;;;;;22.60;46.79;94017.47;4996088;28;20045;-89
2022/07/19 05:48:21;;;;;;;8.23;4.10;;;;;;;22.70;46.62;94015.09;5031526;28;20044;-88
2022/07/19 05:50:47;;;;;;;12.52;5.30;;;;;;;22.72;46.32;94016.06;5008510;28;20072;-89
2022/07/19 05:53:12;;;;;;;10.27;5.88;;;;;;;22.77;45.69;94023.50;5024901;28;20144;-89
2022/07/19 05:55:38;;;;;;;12.60;6.07;;;;;;;22.88;45.04;94023.34;4991273;28;20056;-88
2022/07/19 05:58:03;;;;;;;12.38;6.28;;;;;;;22.93;45.10;94019.03;4987255;28;20044;-87
2022/07/19 06:00:28;;;;;;;10.07;6.07;;;;;;;22.98;45.91;94018.16;4992987;28;20037;-87
2022/07/19 06:02:54;;;;;;;17.20;7.70;;;;;;;23.04;45.88;94009.81;5009352;28;20034;-86
2022/07/19 06:05:19;;;;;;;30.63;11.77;;;;;;;23.05;45.08;94005.78;5020788;28;20029;-89
2022/07/19 06:07:45;;;;;;;17.90;9.20;;;;;;;23.10;44.93;94015.97;4998584;28;20119;-92
2022/07/19 06:10:10;;;;;;;20.35;9.48;;;;;;;23.04;44.76;94018.06;5043167;28;20037;-91
2022/07/19 06:12:36;;;;;;;22.00;12.07;;;;;;;23.04;45.04;94007.06;5032186;28;20048;-90
2022/07/19 06:15:02;;;;;;;61.72;24.73;;;;;;;23.05;45.08;94017.56;5047443;28;20037;-91
2022/07/19 06:17:27;;;;;;;57.15;21.35;;;;;;;23.02;44.90;94018.59;4990134;28;20044;-90
2022/07/19 06:19:53;;;;;;;72.57;31.85;;;;;;;23.04;45.39;94007.06;5018610;28;20029;-91
2022/07/19 06:22:19;;;;;;;111.85;30.33;;;;;;;23.11;46.25;94018.22;5022423;28;20124;-88
2022/07/19 06:24:44;;;;;;;95.13;35.28;;;;;;;23.12;45.81;94022.47;5026591;28;20041;-90
2022/07/19 06:27:10;;;;;;;84.90;36.63;;;;;;;23.14;45.26;94028.19;5052138;28;20060;-93
2022/07/19 06:29:35;;;;;;;87.25;36.35;;;;;;;23.21;45.60;94026.81;5024085;28;20035;-91
2022/07/19 06:32:04;;;;;;;87.88;36.80;;;;;;;23.22;45.36;94020.75;5005886;28;20048;-89
2022/07/19 06:34:29;;;;;;;75.95;33.83;;;;;;;23.25;45.05;94032.75;4996529;28;20507;-88
2022/07/19 06:36:55;;;;;;;70.40;31.80;;;;;;;23.28;45.00;94037.22;5030792;28;20056;-89
2022/07/19 06:39:20;;;;;;;64.13;31.42;;;;;;;23.32;44.76;94023.88;5008237;28;20037;-92
2022/07/19 06:41:47;;;;;;;60.00;29.10;;;;;;;23.33;44.86;94030.88;4994533;28;20053;-91
2022/07/19 06:44:18;;;;;;;56.60;30.00;;;;;;;23.32;44.74;94029.38;5016242;28;20036;-90
2022/07/19 06:46:44;;;;;;;57.75;30.73;;;;;;;23.37;45.17;94020.28;5023983;28;20045;-90
2022/07/19 06:49:09;;;;;;;64.78;32.20;;;;;;;23.36;44.69;94034.59;5005371;28;20037;-89
2022/07/19 06:51:35;;;;;;;74.32;32.33;;;;;;;23.36;44.64;94031.84;5041167;28;20041;-90
2022/07/19 06:54:00;;;;;;;75.78;35.97;;;;;;;23.37;44.84;94034.06;5035315;28;20029;-90
2022/07/19 06:56:27;;;;;;;80.93;39.17;;;;;;;23.38;44.86;94034.81;5017825;28;20055;-88
2022/07/19 06:58:52;;;;;;;83.45;44.05;;;;;;;23.39;44.67;94041.78;4993273;28;20038;-90
2022/07/19 07:01:19;;;;;;;118.78;59.28;;;;;;;23.42;44.59;94043.50;4978082;28;20132;-91
2022/07/19 07:03:44;;;;;;;111.22;57.38;;;;;;;23.49;44.39;94040.13;4977257;28;20061;-90
2022/07/19 07:06:10;;;;;;;135.50;55.33;;;;;;;23.47;44.56;94040.66;5005292;28;20058;-88
2022/07/19 07:08:36;;;;;;;118.70;49.50;;;;;;;23.48;44.41;94039.38;4973301;28;20045;-87
2022/07/19 07:11:01;;;;;;;156.30;55.85;;;;;;;23.47;44.45;94037.16;4988280;28;20038;-90
2022/07/19 07:13:27;;;;;;;132.60;50.50;;;;;;;23.52;44.49;94048.13;4992724;28;20042;-90
2022/07/19 07:15:52;;;;;;;121.45;50.65;;;;;;;23.50;44.31;94047.88;4952614;28;20049;-91
2022/07/19 07:18:18;;;;;;;135.52;55.38;;;;;;;23.50;44.48;94042.34;4955624;28;20045;-90
2022/07/19 07:20:43;;;;;;;113.25;51.75;;;;;;;23.54;44.58;94053.84;4973950;28;20123;-91
2022/07/19 07:23:09;;;;;;;103.07;47.55;;;;;;;23.55;44.44;94044.31;4978151;28;20041;-88
2022/07/19 07:25:34;;;;;;;132.85;58.22;;;;;;;23.58;44.57;94048.03;4973763;28;20050;-88
2022/07/19 07:28:00;;;;;;;153.43;75.07;;;;;;;23.59;44.50;94046.75;4991991;28;20042;-89
2022/07/19 07:30:25;;;;;;;173.60;93.40;;;;;;;23.67;44.26;94052.38;4976680;28;20154;-92
2022/07/19 07:32:51;;;;;;;202.80;108.65;;;;;;;23.63;44.28;94041.63;4960187;28;20037;-92
2022/07/19 07:35:16;;;;;;;223.60;101.88;;;;;;;23.70;44.44;94048.53;4957227;28;20081;-87
2022/07/19 07:37:42;;;;;;;189.15;88.00;;;;;;;23.66;44.36;94043.34;4976517;28;20042;-90
2022/07/19 07:40:08;;;;;;;183.85;90.03;;;;;;;23.66;44.23;94043.34;4989609;28;20088;-88
2022/07/19 07:42:33;;;;;;;194.85;85.55;;;;;;;23.69;44.22;94045.03;4979623;28;20106;-89
2022/07/19 07:45:00;;;;;;;214.73;88.45;;;;;;;23.67;44.46;94046.84;5033271;28;20033;-89
2022/07/19 07:47:25;;;;;;;165.75;78.82;;;;;;;23.66;44.21;94039.84;5005791;28;20106;-90
2022/07/19 07:49:51;;;;;;;195.50;86.50;;;;;;;23.68;44.08;94045.56;5016701;28;20029;-89
2022/07/19 07:52:16;;;;;;;157.52;78.85;;;;;;;23.66;44.17;94037.06;5049081;28;20059;-89
2022/07/19 07:54:42;;;;;;;118.70;61.90;;;;;;;23.74;44.23;94043.47;5010960;28;20042;-89
2022/07/19 07:57:08;;;;;;;125.13;61.47;;;;;;;23.70;44.14;94043.78;5032228;28;20124;-91
2022/07/19 07:59:34;;;;;;;117.38;56.83;;;;;;;23.69;44.29;94036.03;5048131;28;20029;-89
2022/07/19 08:01:59;;;;;;;174.07;91.22;;;;;;;23.71;44.19;94036.22;4999304;28;20040;-88
2022/07/19 08:04:25;;;;;;;194.43;103.68;;;;;;;23.75;44.13;94037.41;5048118;28;20586;-88
2022/07/19 08:06:51;;;;;;;173.52;87.05;;;;;;;23.72;44.25;94041.22;5033602;28;20041;-92
2022/07/19 08:09:17;;;;;;;181.00;82.70;;;;;;;23.72;44.24;94037.72;5000837;28;20100;-91
2022/07/19 08:11:42;;;;;;;246.85;106.20;;;;;;;23.72;44.19;94035.69;4990555;28;20190;-91
2022/07/19 08:14:08;;;;;;;275.52;101.95;;;;;;;23.75;44.17;94036.66;5020492;28;20045;-90
2022/07/19 08:16:33;;;;;;;205.23;83.40;;;;;;;23.79;43.95;94031.56;5035015;28;20123;-89
2022/07/19 08:18:59;;;;;;;181.25;85.57;;;;;;;23.80;44.01;94039.31;5035315;28;20047;-91
2022/07/19 08:21:25;;;;;;;224.82;123.80;;;;;;;23.82;44.04;94036.75;5011373;28;20037;-91
2022/07/19 08:23:51;;;;;;;235.98;128.07;;;;;;;23.83;43.93;94040.25;5001899;28;20075;-92
2022/07/19 08:26:17;;;;;;;242.75;133.18;;;;;;;23.81;44.16;94035.28;4997122;28;20048;-90
2022/07/19 08:28:42;;;;;;;245.43;128.75;;;;;;;23.79;44.29;94039.84;5017765;28;20037;-91
2022/07/19 08:31:08;;;;;;;224.75;126.15;;;;;;;23.84;44.24;94027.94;5050339;28;20151;-90
2022/07/19 08:33:34;;;;;;;239.38;128.63;;;;;;;23.81;44.25;94029.03;5031197;28;20041;-89
2022/07/19 08:35:59;;;;;;;226.52;110.47;;;;;;;23.80;44.20;94039.31;5034130;28;20041;-89
2022/07/19 08:38:25;;;;;;;288.95;122.32;;;;;;;23.78;44.33;94030.81;5049187;28;20037;-90
2022/07/19 08:40:51;;;;;;;285.00;145.35;;;;;;;23.80;43.98;94033.06;5063444;28;20554;-88
2022/07/19 08:43:16;;;;;;;270.10;133.85;;;;;;;23.84;44.01;94041.75;5020495;28;20037;-89
2022/07/19 08:45:42;;;;;;;225.02;121.93;;;;;;;23.82;44.21;94031.22;5033977;28;20052;-92
2022/07/19 08:48:07;;;;;;;222.05;121.57;;;;;;;23.79;44.02;94034.34;4996810;28;20038;-91
2022/07/19 08:50:34;;;;;;;229.63;116.15;;;;;;;23.77;44.39;94032.09;4993726;28;20037;-90
2022/07/19 08:52:59;;;;;;;224.95;117.07;;;;;;;23.79;44.32;94029.56;5021291;28;20033;-90
2022/07/19 08:55:25;;;;;;;284.27;142.98;;;;;;;23.86;44.36;94036.44;5003964;28;20071;-91
2022/07/19 08:57:57;;;;;;;222.88;119.13;;;;;;;23.83;44.15;94029.94;5007034;28;20037;-89
2022/07/19 09:00:24;;;;;;;250.13;124.80;;;;;;;23.84;44.07;94027.94;5014697;28;20040;-89
2022/07/19 09:02:54;;;;;;;214.18;111.45;;;;;;;23.85;44.04;94029.41;5003709;28;20094;-90
2022/07/19 09:05:20;;;;;;;282.25;133.02;;;;;;;23.85;44.07;94032.94;4998607;28;20043;-91
2022/07/19 09:08:04;;;;;;;230.40;108.50;;;;;;;23.81;44.47;94029.03;5017973;28;20332;-89
2022/07/19 09:10:30;;;;;;;238.60;107.47;;;;;;;23.83;44.42;94032.72;5016594;28;20033;-90
2022/07/19 09:13:13;;;;;;;225.10;105.95;;;;;;;23.80;44.46;94033.06;5001031;28;20048;-92
2022/07/19 09:15:45;;;;;;;214.45;109.35;;;;;;;23.84;44.24;94039.72;5001668;28;20049;-91
2022/07/19 09:18:15;;;;;;;250.07;118.65;;;;;;;23.83;44.43;94034.72;5024034;28;20390;-92
2022/07/19 09:20:41;;;;;;;197.32;98.07;;;;;;;23.85;44.23;94034.94;5010485;28;20041;-90
2022/07/19 09:23:08;;;;;;;193.52;99.07;;;;;;;23.86;44.20;94028.16;5000033;28;20040;-89
2022/07/19 09:25:39;;;;;;;197.10;105.57;;;;;;;23.84;44.23;94022.41;5016250;28;20472;-89
2022/07/19 09:28:05;;;;;;;228.65;105.20;;;;;;;23.85;44.38;94027.41;5008042;28;20044;-90
2022/07/19 09:30:37;;;;;;;323.08;179.30;;;;;;;23.83;44.15;94024.44;5032281;28;20029;-90
2022/07/19 09:33:15;;;;;;;213.05;113.38;;;;;;;23.80;44.07;94024.78;5047867;28;20044;-89
2022/07/19 09:35:43;;;;;;;287.92;163.65;;;;;;;23.82;44.18;94022.94;5015432;28;20524;-91
2022/07/19 09:38:20;;;;;;;203.63;108.97;;;;;;;23.88;44.12;94020.09;4999173;28;20491;-91
2022/07/19 09:40:47;;;;;;;213.80;94.78;;;;;;;23.86;43.92;94015.09;5015585;28;20029;-90
2022/07/19 09:43:12;;;;;;;209.57;96.85;;;;;;;23.85;43.78;94018.38;4999933;28;20094;-91
2022/07/19 09:45:38;;;;;;;188.52;95.60;;;;;;;23.85;44.08;94018.38;4991043;28;20582;-92
2022/07/19 09:48:04;;;;;;;192.48;97.78;;;;;;;23.84;44.03;94016.88;4998399;28;20460;-90
2022/07/19 09:50:29;;;;;;;213.13;103.15;;;;;;;23.85;44.25;94018.38;5031456;28;20583;-92
2022/07/19 09:52:55;;;;;;;227.95;121.28;;;;;;;23.91;44.20;94016.25;5031058;28;20033;-91
2022/07/19 09:55:20;;;;;;;253.68;130.60;;;;;;;23.92;44.00;94018.50;5015088;28;20578;-93
2022/07/19 09:57:49;;;;;;;238.30;133.85;;;;;;;23.93;43.88;94008.19;5026740;28;20603;-91
2022/07/19 10:00:16;;;;;;;234.25;111.72;;;;;;;23.87;44.06;94010.31;5014990;28;20412;-91
2022/07/19 10:02:44;;;;;;;379.05;142.45;;;;;;;23.87;44.01;94015.84;5028360;28;20098;-92
2022/07/19 10:05:10;;;;;;;268.95;122.85;;;;;;;23.89;43.91;94007.75;5026421;28;20091;-92
2022/07/19 10:07:36;;;;;;;189.32;97.53;;;;;;;23.91;44.13;93996.94;4999803;28;20037;-91
2022/07/19 10:10:06;;;;;;;159.57;88.72;;;;;;;23.86;43.80;94008.81;5014756;28;20038;-90
2022/07/19 10:12:32;;;;;;;168.07;91.45;;;;;;;23.91;43.99;94005.22;5002400;28;20102;-91
2022/07/19 10:14:58;;;;;;;155.38;84.25;;;;;;;23.94;43.87;94006.91;5004254;28;20524;-91
2022/07/19 10:17:34;;;;;;;164.07;85.72;;;;;;;23.91;44.03;94003.19;5006195;28;20044;-90
2022/07/19 10:19:59;;;;;;;150.43;81.22;;;;;;;23.93;43.96;93995.13;4993669;28;20056;-91
2022/07/19 10:22:27;;;;;;;139.43;82.78;;;;;;;23.90;43.86;93996.19;5022607;28;20040;-91
2022/07/19 10:24:57;;;;;;;133.32;77.47;;;;;;;23.88;44.06;93992.47;5006985;28;20331;-90
2022/07/19 10:27:25;;;;;;;128.48;75.68;;;;;;;23.90;43.90;93993.41;5036597;28;20025;-91
2022/07/19 10:29:56;;;;;;;117.10;67.53;;;;;;;23.93;43.73;93986.84;5037077;28;20039;-90
2022/07/19 10:32:27;;;;;;;121.82;70.93;;;;;;;23.97;43.72;93991.28;5037034;28;20029;-90
2022/07/19 10:35:14;;;;;;;113.53;67.63;;;;;;;23.96;43.81;93993.31;4999829;28;20048;-91
2022/07/19 10:37:41;;;;;;;111.40;62.67;;;;;;;23.92;43.85;93992.88;5036136;28;20807;-91
2022/07/19 10:40:06;;;;;;;108.22;62.30;;;;;;;23.94;43.76;93995.88;5020373;28;20112;-90
2022/07/19 10:42:32;;;;;;;103.25;58.25;;;;;;;23.90;44.09;93993.41;4996417;28;20064;-91
2022/07/19 10:44:57;;;;;;;93.75;58.42;;;;;;;23.91;43.78;93985.88;5037738;28;20384;-90
2022/07/19 10:47:32;;;;;;;103.70;57.35;;;;;;;23.91;43.90;93994.91;5049405;28;20123;-90
2022/07/19 10:50:07;;;;;;;162.77;94.32;;;;;;;23.95;43.60;93997.34;5037173;28;20068;-90
2022/07/19 10:52:37;;;;;;;148.60;92.22;;;;;;;23.91;43.89;93985.88;5004744;28;20033;-90
2022/07/19 10:55:27;;;;;;;168.10;105.90;;;;;;;23.89;43.99;93980.88;5019451;28;20546;-92
2022/07/19 10:57:59;;;;;;;206.50;106.53;;;;;;;23.94;43.78;93979.28;5012891;28;20041;-91
2022/07/19 11:00:26;;;;;;;210.40;107.38;;;;;;;23.92;43.80;93979.09;5054094;28;20060;-89
2022/07/19 11:02:52;;;;;;;175.60;100.18;;;;;;;23.97;43.80;93983.75;5033643;28;20400;-91
2022/07/19 11:05:24;;;;;;;182.02;108.57;;;;;;;23.92;44.02;93984.59;5018315;28;20038;-90
2022/07/19 11:07:50;;;;;;;189.95;114.78;;;;;;;24.01;43.74;93980.69;5034623;28;20034;-91
2022/07/19 11:10:29;;;;;;;165.20;98.95;;;;;;;23.95;43.89;93985.56;5019769;28;20037;-91
2022/07/19 11:12:56;;;;;;;171.02;102.47;;;;;;;23.97;43.70;93983.75;5035202;28;20056;-91
2022/07/19 11:15:22;;;;;;;213.68;123.25;;;;;;;23.96;44.08;93970.47;5036430;28;20451;-91